createdAt,value
2022-08-24T00:00:43.563Z,82.65
2022-08-24T00:01:43.545Z,82.55
2022-08-24T00:02:43.645Z,83.36
2022-08-24T00:03:43.518Z,83.56
2022-08-24T00:04:43.509Z,83.12
2022-08-24T00:05:43.490Z,84.06
2022-08-24T00:06:43.476Z,84.67
2022-08-24T00:07:43.462Z,84.97
2022-08-24T00:08:43.455Z,84.87
2022-08-24T00:09:43.436Z,84.47
2022-08-24T00:10:44.455Z,84.27
2022-08-24T00:11:43.407Z,83.66
2022-08-24T00:12:43.396Z,84.47
2022-08-24T00:13:43.382Z,84.87
2022-08-24T00:14:43.366Z,85.17
2022-08-24T00:15:43.355Z,85.38
2022-08-24T00:16:43.420Z,84.97
2022-08-24T00:17:43.326Z,84.77
2022-08-24T00:18:43.314Z,84.00
2022-08-24T00:19:43.300Z,83.60
2022-08-24T00:20:45.329Z,83.76
2022-08-24T00:21:43.285Z,84.91
2022-08-24T00:22:43.261Z,85.02
2022-08-24T00:23:43.245Z,84.91
2022-08-24T00:24:43.242Z,85.02
2022-08-24T00:25:43.221Z,84.57
2022-08-24T00:26:43.212Z,84.81
2022-08-24T00:27:43.194Z,84.81
2022-08-24T00:28:43.193Z,84.31
2022-08-24T00:29:43.166Z,85.02
2022-08-24T00:30:43.156Z,85.02
2022-08-24T00:31:43.202Z,85.02
2022-08-24T00:32:43.127Z,84.41
2022-08-24T00:33:43.125Z,86.02
2022-08-24T00:34:44.746Z,86.07
2022-08-24T00:35:44.114Z,84.85
2022-08-24T00:36:43.082Z,84.85
2022-08-24T00:37:43.058Z,84.95
2022-08-24T00:38:43.049Z,85.86
2022-08-24T00:39:43.057Z,85.56
2022-08-24T00:40:43.024Z,85.46
2022-08-24T00:41:43.007Z,84.85
2022-08-24T00:42:42.991Z,84.85
2022-08-24T00:43:42.972Z,85.46
2022-08-24T00:44:42.965Z,86.07
2022-08-24T00:45:43.025Z,85.80
2022-08-24T00:46:42.939Z,86.27
2022-08-24T00:47:42.916Z,85.70
2022-08-24T00:48:42.907Z,85.80
2022-08-24T00:49:42.889Z,86.31
2022-08-24T00:50:42.881Z,86.21
2022-08-24T00:51:42.868Z,85.50
2022-08-24T00:52:42.858Z,85.10
2022-08-24T00:53:42.846Z,85.19
2022-08-24T00:54:46.128Z,85.44
2022-08-24T00:55:42.812Z,85.70
2022-08-24T00:56:42.796Z,85.60
2022-08-24T00:57:42.785Z,86.00
2022-08-24T00:58:42.773Z,86.71
2022-08-24T00:59:42.759Z,86.85
2022-08-24T01:00:42.778Z,87.26
2022-08-24T01:01:42.941Z,87.26
2022-08-24T01:02:42.738Z,86.96
2022-08-24T01:03:42.703Z,86.55
2022-08-24T01:04:42.695Z,85.74
2022-08-24T01:05:42.677Z,86.55
2022-08-24T01:06:42.669Z,87.46
2022-08-24T01:07:42.646Z,87.16
2022-08-24T01:08:42.640Z,87.05
2022-08-24T01:09:42.622Z,86.55
2022-08-24T01:10:42.609Z,86.76
2022-08-24T01:11:42.596Z,86.85
2022-08-24T01:12:42.586Z,87.05
2022-08-24T01:13:43.598Z,86.69
2022-08-24T01:14:42.561Z,85.84
2022-08-24T01:15:42.541Z,86.76
2022-08-24T01:16:42.546Z,87.71
2022-08-24T01:17:42.510Z,87.60
2022-08-24T01:18:42.504Z,87.51
2022-08-24T01:19:42.491Z,87.10
2022-08-24T01:20:42.481Z,88.07
2022-08-24T01:21:42.460Z,88.07
2022-08-24T01:22:42.454Z,88.62
2022-08-24T01:23:42.432Z,87.91
2022-08-24T01:24:42.420Z,88.51
2022-08-24T01:25:42.401Z,89.12
2022-08-24T01:26:42.395Z,89.53
2022-08-24T01:27:42.422Z,88.82
2022-08-24T01:28:42.365Z,88.21
2022-08-24T01:29:42.349Z,88.11
2022-08-24T01:30:42.342Z,88.01
2022-08-24T01:31:42.433Z,89.43
2022-08-24T01:32:42.314Z,89.73
2022-08-24T01:33:42.299Z,90.34
2022-08-24T01:34:42.287Z,90.54
2022-08-24T01:35:42.270Z,90.84
2022-08-24T01:36:42.268Z,90.54
2022-08-24T01:37:42.248Z,90.18
2022-08-24T01:38:42.237Z,90.34
2022-08-24T01:39:42.267Z,89.98
2022-08-24T01:40:42.205Z,90.48
2022-08-24T01:41:42.190Z,89.98
2022-08-24T01:42:42.177Z,90.58
2022-08-24T01:43:42.166Z,90.44
2022-08-24T01:44:42.151Z,89.37
2022-08-24T01:45:42.133Z,89.37
2022-08-24T01:46:42.179Z,90.18
2022-08-24T01:47:42.109Z,90.73
2022-08-24T01:48:42.101Z,90.28
2022-08-24T01:49:42.086Z,89.98
2022-08-24T01:50:42.070Z,90.53
2022-08-24T01:51:42.055Z,90.93
2022-08-24T01:53:03.882Z,90.83
2022-08-24T01:53:43.047Z,91.50
2022-08-24T01:54:43.415Z,91.94
2022-08-24T01:55:42.003Z,92.45
2022-08-24T01:56:41.990Z,91.13
2022-08-24T01:57:41.974Z,91.64
2022-08-24T01:58:41.964Z,92.35
2022-08-24T01:59:41.951Z,92.55
2022-08-24T02:00:41.938Z,92.09
2022-08-24T02:01:41.959Z,91.08
2022-08-24T02:02:41.932Z,92.09
2022-08-24T02:03:41.886Z,91.13
2022-08-24T02:04:41.882Z,91.85
2022-08-24T02:05:41.861Z,92.29
2022-08-24T02:06:41.850Z,92.49
2022-08-24T02:07:41.840Z,92.40
2022-08-24T02:08:41.826Z,92.09
2022-08-24T02:09:41.810Z,91.99
2022-08-24T02:10:41.797Z,91.89
2022-08-24T02:11:42.811Z,92.09
2022-08-24T02:12:41.772Z,91.99
2022-08-24T02:13:41.758Z,91.99
2022-08-24T02:14:41.749Z,91.78
2022-08-24T02:15:41.788Z,92.70
2022-08-24T02:16:41.719Z,93.51
2022-08-24T02:17:41.702Z,93.71
2022-08-24T02:18:41.690Z,93.86
2022-08-24T02:19:41.682Z,93.76
2022-08-24T02:20:41.658Z,93.45
2022-08-24T02:21:41.651Z,93.15
2022-08-24T02:22:41.633Z,93.96
2022-08-24T02:23:41.622Z,94.26
2022-08-24T02:24:41.623Z,94.17
2022-08-24T02:25:41.595Z,93.96
2022-08-24T02:26:41.582Z,93.86
2022-08-24T02:27:41.559Z,93.65
2022-08-24T02:28:41.557Z,94.06
2022-08-24T02:29:41.530Z,93.55
2022-08-24T02:30:41.581Z,93.96
2022-08-24T02:31:41.510Z,94.26
2022-08-24T02:32:41.499Z,93.86
2022-08-24T02:33:41.481Z,93.55
2022-08-24T02:34:41.471Z,93.55
2022-08-24T02:35:41.451Z,93.45
2022-08-24T02:36:41.440Z,93.40
2022-08-24T02:37:43.691Z,93.40
2022-08-24T02:38:41.424Z,93.49
2022-08-24T02:39:41.396Z,93.70
2022-08-24T02:40:41.384Z,93.90
2022-08-24T02:41:41.365Z,94.31
2022-08-24T02:42:41.357Z,94.21
2022-08-24T02:43:41.343Z,94.56
2022-08-24T02:44:41.336Z,95.17
2022-08-24T02:45:41.314Z,95.42
2022-08-24T02:46:41.361Z,95.37
2022-08-24T02:47:41.283Z,95.32
2022-08-24T02:48:41.275Z,95.02
2022-08-24T02:49:41.261Z,95.47
2022-08-24T02:50:41.244Z,95.47
2022-08-24T02:51:44.390Z,95.17
2022-08-24T02:52:41.223Z,95.37
2022-08-24T02:53:41.206Z,95.78
2022-08-24T02:54:41.197Z,95.73
2022-08-24T02:55:41.179Z,95.73
2022-08-24T02:56:41.162Z,95.78
2022-08-24T02:57:41.146Z,95.17
2022-08-24T02:58:41.135Z,94.82
2022-08-24T02:59:41.124Z,94.82
2022-08-24T03:00:41.112Z,95.26
2022-08-24T03:01:41.200Z,94.61
2022-08-24T03:02:41.186Z,94.45
2022-08-24T03:03:41.067Z,95.57
2022-08-24T03:04:41.057Z,95.67
2022-08-24T03:05:41.040Z,95.87
2022-08-24T03:06:41.027Z,95.63
2022-08-24T03:07:41.024Z,95.78
2022-08-24T03:08:41.006Z,95.87
2022-08-24T03:09:40.993Z,95.78
2022-08-24T03:10:40.977Z,95.67
2022-08-24T03:11:43.283Z,94.96
2022-08-24T03:12:40.946Z,94.71
2022-08-24T03:13:40.930Z,95.17
2022-08-24T03:14:40.919Z,94.86
2022-08-24T03:15:40.920Z,94.76
2022-08-24T03:16:40.894Z,94.96
2022-08-24T03:17:41.061Z,95.67
2022-08-24T03:18:40.868Z,95.92
2022-08-24T03:19:40.848Z,95.98
2022-08-24T03:20:40.840Z,95.47
2022-08-24T03:21:40.825Z,95.92
2022-08-24T03:22:40.819Z,96.08
2022-08-24T03:23:40.802Z,95.98
2022-08-24T03:24:40.794Z,96.02
2022-08-24T03:25:40.769Z,96.02
2022-08-24T03:26:44.363Z,95.82
2022-08-24T03:27:40.743Z,95.72
2022-08-24T03:28:40.730Z,95.51
2022-08-24T03:29:40.721Z,95.21
2022-08-24T03:30:40.742Z,95.51
2022-08-24T03:31:40.692Z,96.12
2022-08-24T03:32:40.679Z,96.73
2022-08-24T03:33:40.660Z,96.73
2022-08-24T03:34:40.650Z,96.88
2022-08-24T03:35:40.634Z,96.73
2022-08-24T03:36:40.619Z,97.34
2022-08-24T03:37:40.603Z,97.55
2022-08-24T03:38:40.598Z,97.55
2022-08-24T03:39:40.581Z,97.69
2022-08-24T03:40:40.598Z,97.49
2022-08-24T03:41:40.555Z,97.60
2022-08-24T03:42:40.550Z,97.69
2022-08-24T03:43:40.529Z,97.60
2022-08-24T03:44:40.519Z,97.65
2022-08-24T03:45:40.557Z,97.60
2022-08-24T03:46:40.491Z,97.69
2022-08-24T03:47:40.476Z,97.80
2022-08-24T03:48:40.462Z,97.55
2022-08-24T03:49:40.446Z,97.08
2022-08-24T03:50:40.443Z,97.08
2022-08-24T03:51:40.419Z,96.98
2022-08-24T03:52:40.414Z,97.08
2022-08-24T03:53:42.940Z,97.39
2022-08-24T03:54:40.387Z,97.80
2022-08-24T03:55:40.360Z,97.75
2022-08-24T03:56:40.353Z,97.69
2022-08-24T03:57:40.336Z,97.69
2022-08-24T03:58:40.325Z,97.80
2022-08-24T03:59:46.749Z,97.89
2022-08-24T04:00:41.323Z,97.89
2022-08-24T04:01:40.375Z,97.80
2022-08-24T04:02:40.324Z,97.69
2022-08-24T04:03:40.256Z,97.69
2022-08-24T04:04:40.242Z,97.60
2022-08-24T04:05:40.232Z,97.60
2022-08-24T04:06:40.216Z,97.29
2022-08-24T04:07:40.208Z,97.29
2022-08-24T04:08:40.200Z,96.88
2022-08-24T04:09:40.176Z,97.19
2022-08-24T04:10:40.172Z,97.08
2022-08-24T04:11:41.472Z,97.60
2022-08-24T04:12:40.139Z,97.60
2022-08-24T04:13:40.132Z,97.60
2022-08-24T04:14:40.115Z,97.19
2022-08-24T04:15:40.103Z,97.39
2022-08-24T04:16:40.338Z,97.49
2022-08-24T04:17:40.074Z,97.94
2022-08-24T04:18:40.057Z,97.94
2022-08-24T04:19:40.042Z,97.69
2022-08-24T04:20:40.030Z,97.60
2022-08-24T04:21:40.016Z,97.60
2022-08-24T04:22:39.999Z,97.89
2022-08-24T04:23:47.479Z,98.25
2022-08-24T04:24:40.998Z,98.25
2022-08-24T04:25:39.964Z,98.20
2022-08-24T04:26:45.456Z,98.25
2022-08-24T04:27:39.938Z,98.45
2022-08-24T04:28:39.922Z,98.55
2022-08-24T04:29:39.911Z,98.45
2022-08-24T04:30:39.895Z,98.45
2022-08-24T04:31:39.949Z,98.66
2022-08-24T04:32:39.875Z,98.50
2022-08-24T04:33:39.863Z,98.66
2022-08-24T04:34:39.847Z,98.86
2022-08-24T04:35:39.826Z,98.75
2022-08-24T04:36:39.811Z,98.45
2022-08-24T04:37:39.801Z,98.66
2022-08-24T04:38:39.788Z,98.75
2022-08-24T04:39:39.781Z,98.86
2022-08-24T04:40:39.765Z,98.96
2022-08-24T04:41:39.752Z,98.75
2022-08-24T04:42:39.738Z,98.61
2022-08-24T04:43:39.719Z,98.66
2022-08-24T04:44:39.706Z,98.55
2022-08-24T04:45:39.771Z,98.66
2022-08-24T04:46:39.679Z,98.75
2022-08-24T04:47:39.670Z,98.66
2022-08-24T04:48:39.649Z,98.55
2022-08-24T04:49:39.637Z,98.10
2022-08-24T04:50:39.622Z,97.80
2022-08-24T04:51:39.615Z,97.64
2022-08-24T04:52:39.601Z,97.64
2022-08-24T04:53:39.591Z,97.69
2022-08-24T04:54:39.573Z,97.69
2022-08-24T04:55:39.566Z,97.84
2022-08-24T04:56:39.552Z,97.94
2022-08-24T04:57:39.536Z,97.94
2022-08-24T04:58:39.522Z,98.00
2022-08-24T04:59:39.504Z,98.10
2022-08-24T05:00:39.566Z,98.25
2022-08-24T05:01:39.482Z,98.30
2022-08-24T05:02:44.537Z,98.30
2022-08-24T05:03:39.455Z,98.30
2022-08-24T05:04:39.440Z,98.00
2022-08-24T05:05:39.428Z,98.00
2022-08-24T05:06:39.415Z,97.89
2022-08-24T05:07:39.405Z,97.75
2022-08-24T05:08:39.383Z,97.85
2022-08-24T05:09:39.373Z,97.60
2022-08-24T05:10:39.360Z,97.04
2022-08-24T05:11:39.346Z,97.04
2022-08-24T05:12:39.329Z,96.53
2022-08-24T05:13:39.321Z,96.63
2022-08-24T05:14:39.303Z,96.73
2022-08-24T05:15:39.305Z,96.63
2022-08-24T05:16:39.388Z,96.23
2022-08-24T05:17:40.292Z,95.57
2022-08-24T05:18:39.263Z,95.57
2022-08-24T05:19:39.240Z,95.57
2022-08-24T05:20:39.230Z,95.17
2022-08-24T05:21:40.118Z,94.96
2022-08-24T05:22:39.200Z,95.17
2022-08-24T05:23:39.188Z,94.61
2022-08-24T05:24:39.195Z,94.35
2022-08-24T05:25:39.162Z,94.21
2022-08-24T05:26:39.143Z,94.10
2022-08-24T05:27:39.131Z,94.31
2022-08-24T05:28:39.130Z,95.22
2022-08-24T05:29:39.107Z,94.61
2022-08-24T05:30:42.498Z,94.41
2022-08-24T05:31:39.172Z,93.80
2022-08-24T05:32:39.064Z,94.06
2022-08-24T05:33:39.055Z,92.84
2022-08-24T05:34:39.034Z,92.64
2022-08-24T05:35:39.020Z,92.33
2022-08-24T05:36:39.006Z,91.38
2022-08-24T05:37:38.991Z,90.51
2022-08-24T05:38:38.976Z,90.16
2022-08-24T05:39:38.970Z,90.36
2022-08-24T05:40:38.956Z,91.08
2022-08-24T05:41:38.945Z,91.13
2022-08-24T05:42:38.924Z,89.47
2022-08-24T05:43:38.913Z,87.65
2022-08-24T05:44:38.897Z,86.85
2022-08-24T05:45:38.888Z,84.89
2022-08-24T05:46:38.938Z,85.10
2022-08-24T05:47:38.855Z,84.20
2022-08-24T05:48:38.846Z,81.98
2022-08-24T05:49:41.538Z,81.74
2022-08-24T05:50:38.811Z,80.59
2022-08-24T05:51:38.801Z,79.54
2022-08-24T05:52:38.787Z,78.23
2022-08-24T05:53:38.778Z,77.19
2022-08-24T05:54:38.761Z,77.95
2022-08-24T05:55:38.753Z,77.35
2022-08-24T05:56:38.732Z,76.64
2022-08-24T05:57:38.721Z,77.31
2022-08-24T05:58:38.711Z,76.10
2022-08-24T05:59:38.695Z,76.57
2022-08-24T06:00:38.679Z,75.26
2022-08-24T06:01:42.202Z,76.54
2022-08-24T06:02:38.703Z,74.69
2022-08-24T06:03:38.645Z,73.41
2022-08-24T06:04:38.626Z,74.12
2022-08-24T06:05:38.609Z,74.99
2022-08-24T06:06:38.594Z,74.49
2022-08-24T06:07:38.591Z,73.58
2022-08-24T06:08:41.506Z,72.77
2022-08-24T06:09:38.563Z,73.18
2022-08-24T06:10:38.599Z,73.44
2022-08-24T06:11:38.539Z,73.35
2022-08-24T06:12:38.514Z,73.55
2022-08-24T06:13:38.502Z,72.94
2022-08-24T06:14:38.489Z,72.74
2022-08-24T06:15:38.486Z,73.75
2022-08-24T06:16:38.523Z,73.00
2022-08-24T06:17:38.505Z,72.41
2022-08-24T06:18:38.437Z,70.70
2022-08-24T06:19:38.428Z,72.61
2022-08-24T06:20:38.409Z,70.09
2022-08-24T06:21:38.397Z,71.00
2022-08-24T06:22:38.388Z,71.70
2022-08-24T06:23:38.375Z,71.16
2022-08-24T06:24:38.355Z,72.17
2022-08-24T06:25:38.347Z,71.67
2022-08-24T06:26:38.330Z,71.83
2022-08-24T06:27:38.320Z,70.23
2022-08-24T06:28:38.297Z,72.13
2022-08-24T06:29:38.290Z,72.24
2022-08-24T06:30:38.274Z,72.00
2022-08-24T06:31:39.648Z,69.96
2022-08-24T06:32:38.251Z,69.15
2022-08-24T06:33:38.234Z,69.35
2022-08-24T06:34:38.223Z,68.22
2022-08-24T06:35:38.211Z,66.78
2022-08-24T06:36:40.129Z,66.68
2022-08-24T06:37:38.179Z,67.65
2022-08-24T06:38:38.162Z,66.45
2022-08-24T06:39:38.157Z,66.85
2022-08-24T06:40:38.139Z,66.95
2022-08-24T06:41:38.131Z,66.15
2022-08-24T06:42:38.113Z,66.12
2022-08-24T06:43:38.104Z,65.12
2022-08-24T06:44:38.084Z,65.31
2022-08-24T06:45:38.074Z,64.81
2022-08-24T06:46:38.132Z,65.22
2022-08-24T06:47:38.059Z,64.04
2022-08-24T06:48:38.034Z,65.15
2022-08-24T06:49:38.021Z,66.25
2022-08-24T06:50:38.009Z,64.75
2022-08-24T06:51:37.995Z,66.65
2022-08-24T06:52:37.980Z,66.82
2022-08-24T06:53:37.967Z,64.22
2022-08-24T06:54:37.952Z,66.49
2022-08-24T06:55:37.946Z,64.45
2022-08-24T06:56:37.925Z,63.95
2022-08-24T06:57:37.915Z,62.72
2022-08-24T06:58:37.899Z,63.22
2022-08-24T06:59:37.889Z,62.29
2022-08-24T07:00:37.877Z,63.39
2022-08-24T07:01:37.968Z,63.66
2022-08-24T07:02:37.900Z,61.76
2022-08-24T07:03:37.833Z,62.50
2022-08-24T07:04:37.815Z,59.51
2022-08-24T07:05:37.807Z,62.20
2022-08-24T07:06:37.790Z,59.28
2022-08-24T07:07:37.783Z,60.85
2022-08-24T07:08:37.767Z,59.82
2022-08-24T07:09:37.759Z,57.97
2022-08-24T07:10:37.741Z,58.87
2022-08-24T07:11:37.730Z,58.54
2022-08-24T07:12:37.709Z,56.05
2022-08-24T07:13:37.700Z,55.73
2022-08-24T07:14:37.682Z,55.93
2022-08-24T07:15:37.704Z,56.20
2022-08-24T07:16:37.663Z,54.88
2022-08-24T07:17:37.652Z,54.85
2022-08-24T07:18:37.632Z,54.93
2022-08-24T07:19:37.622Z,52.86
2022-08-24T07:20:37.655Z,53.58
2022-08-24T07:21:37.594Z,54.65
2022-08-24T07:22:37.578Z,53.93
2022-08-24T07:23:41.766Z,53.11
2022-08-24T07:24:37.663Z,53.06
2022-08-24T07:25:37.550Z,52.26
2022-08-24T07:26:37.528Z,51.97
2022-08-24T07:27:37.517Z,52.34
2022-08-24T07:28:37.501Z,50.56
2022-08-24T07:29:50.501Z,50.88
2022-08-24T07:30:38.505Z,51.50
2022-08-24T07:31:37.499Z,51.84
2022-08-24T07:32:37.455Z,52.19
2022-08-24T07:33:37.446Z,50.60
2022-08-24T07:34:37.445Z,51.18
2022-08-24T07:35:37.416Z,49.84
2022-08-24T07:36:39.927Z,48.65
2022-08-24T07:37:41.357Z,49.47
2022-08-24T07:38:37.372Z,50.16
2022-08-24T07:39:37.368Z,50.46
2022-08-24T07:41:01.756Z,49.35
2022-08-24T07:41:51.573Z,48.08
2022-08-24T07:42:38.386Z,49.34
2022-08-24T07:43:40.952Z,50.95
2022-08-24T07:44:37.302Z,51.12
2022-08-24T07:45:37.287Z,51.57
2022-08-24T07:46:37.315Z,49.66
2022-08-24T07:47:40.517Z,50.04
2022-08-24T07:48:37.248Z,48.80
2022-08-24T07:49:39.503Z,49.48
2022-08-24T07:50:37.225Z,47.08
2022-08-24T07:51:37.257Z,48.24
2022-08-24T07:52:37.201Z,47.16
2022-08-24T07:53:52.491Z,46.03
2022-08-24T07:54:38.197Z,46.40
2022-08-24T07:55:45.849Z,45.67
2022-08-24T07:56:38.175Z,44.88
2022-08-24T07:57:37.142Z,44.56
2022-08-24T07:58:37.128Z,43.77
2022-08-24T07:59:37.120Z,42.69
2022-08-24T08:00:37.102Z,43.10
2022-08-24T08:01:37.172Z,43.64
2022-08-24T08:02:37.105Z,45.02
2022-08-24T08:03:37.066Z,43.74
2022-08-24T08:04:37.049Z,45.14
2022-08-24T08:05:37.037Z,45.95
2022-08-24T08:06:37.027Z,45.65
2022-08-24T08:07:37.016Z,45.57
2022-08-24T08:08:37.005Z,47.77
2022-08-24T08:09:36.990Z,48.93
2022-08-24T08:10:36.975Z,46.94
2022-08-24T08:11:36.959Z,45.60
2022-08-24T08:12:36.949Z,45.87
2022-08-24T08:13:36.955Z,46.29
2022-08-24T08:14:36.925Z,46.59
2022-08-24T08:15:36.959Z,47.03
2022-08-24T08:16:36.938Z,45.53
2022-08-24T08:17:36.883Z,44.72
2022-08-24T08:18:36.878Z,44.94
2022-08-24T08:19:36.860Z,45.46
2022-08-24T08:20:36.886Z,45.02
2022-08-24T08:21:36.837Z,45.27
2022-08-24T08:22:36.824Z,43.50
2022-08-24T08:23:36.808Z,44.31
2022-08-24T08:24:36.799Z,44.29
2022-08-24T08:25:36.780Z,44.54
2022-08-24T08:26:36.772Z,43.12
2022-08-24T08:27:36.803Z,42.98
2022-08-24T08:28:37.375Z,42.65
2022-08-24T08:29:36.735Z,40.31
2022-08-24T08:30:36.755Z,40.53
2022-08-24T08:31:36.746Z,40.92
2022-08-24T08:32:36.700Z,41.27
2022-08-24T08:33:36.682Z,40.56
2022-08-24T08:34:36.674Z,39.19
2022-08-24T08:35:36.664Z,39.76
2022-08-24T08:36:36.659Z,39.06
2022-08-24T08:38:36.628Z,38.57
2022-08-24T08:39:36.616Z,38.68
2022-08-24T08:40:36.606Z,39.86
2022-08-24T08:41:36.586Z,39.07
2022-08-24T08:42:36.579Z,40.74
2022-08-24T08:43:36.653Z,39.64
2022-08-24T08:44:36.564Z,40.41
2022-08-24T08:45:36.544Z,39.92
2022-08-24T08:46:40.665Z,38.94
2022-08-24T08:47:36.521Z,39.02
2022-08-24T08:48:36.507Z,38.71
2022-08-24T08:49:36.493Z,37.41
2022-08-24T08:50:36.480Z,36.62
2022-08-24T08:51:36.475Z,37.81
2022-08-24T08:52:36.465Z,37.30
2022-08-24T08:53:36.451Z,37.96
2022-08-24T08:54:36.436Z,37.19
2022-08-24T08:55:36.516Z,36.90
2022-08-24T08:56:36.423Z,35.78
2022-08-24T08:57:36.460Z,35.86
2022-08-24T08:58:36.443Z,35.75
2022-08-24T08:59:36.459Z,35.15
2022-08-24T09:00:36.451Z,35.52
2022-08-24T09:01:46.927Z,34.22
2022-08-24T09:02:37.456Z,36.19
2022-08-24T09:03:36.397Z,35.51
2022-08-24T09:04:36.462Z,36.37
2022-08-24T09:05:36.377Z,35.49
2022-08-24T09:06:36.343Z,36.35
2022-08-24T09:07:36.362Z,34.48
2022-08-24T09:08:36.284Z,33.51
2022-08-24T09:09:36.257Z,33.33
2022-08-24T09:10:36.258Z,33.93
2022-08-24T09:11:36.245Z,34.01
2022-08-24T09:12:36.233Z,32.35
2022-08-24T09:13:36.215Z,32.29
2022-08-24T09:14:36.207Z,32.08
2022-08-24T09:15:36.190Z,32.48
2022-08-24T09:16:36.225Z,31.88
2022-08-24T09:17:36.170Z,30.42
2022-08-24T09:18:36.159Z,31.41
2022-08-24T09:19:36.150Z,30.86
2022-08-24T09:20:36.139Z,31.77
2022-08-24T09:21:36.127Z,32.45
2022-08-24T09:22:36.121Z,31.98
2022-08-24T09:23:36.101Z,34.01
2022-08-24T09:24:36.089Z,31.85
2022-08-24T09:25:36.075Z,31.77
2022-08-24T09:26:36.076Z,32.35
2022-08-24T09:27:36.450Z,33.59
2022-08-24T09:28:36.047Z,31.51
2022-08-24T09:29:36.031Z,31.80
2022-08-24T09:30:36.054Z,32.45
2022-08-24T09:31:36.007Z,30.68
2022-08-24T09:32:35.994Z,30.10
2022-08-24T09:33:35.979Z,30.68
2022-08-24T09:34:36.111Z,31.16
2022-08-24T09:35:35.964Z,30.05
2022-08-24T09:36:35.952Z,28.40
2022-08-24T09:37:36.094Z,30.54
2022-08-24T09:38:35.926Z,28.11
2022-08-24T09:39:35.915Z,28.92
2022-08-24T09:40:35.905Z,30.54
2022-08-24T09:41:35.885Z,28.30
2022-08-24T09:42:35.889Z,28.70
2022-08-24T09:43:35.869Z,29.10
2022-08-24T09:44:35.862Z,29.49
2022-08-24T09:45:35.897Z,27.61
2022-08-24T09:46:35.837Z,28.49
2022-08-24T09:47:35.818Z,27.92
2022-08-24T09:48:35.811Z,27.95
2022-08-24T09:49:35.808Z,29.42
2022-08-24T09:50:35.790Z,29.13
2022-08-24T09:51:35.794Z,30.08
2022-08-24T09:52:35.775Z,29.38
2022-08-24T09:53:35.756Z,30.22
2022-08-24T09:54:35.750Z,27.21
2022-08-24T09:55:35.742Z,29.25
2022-08-24T09:56:35.734Z,27.32
2022-08-24T09:57:59.380Z,28.32
2022-08-24T09:58:36.777Z,28.02
2022-08-24T09:59:35.749Z,27.93
2022-08-24T10:00:35.752Z,28.15
2022-08-24T10:01:35.807Z,29.11
2022-08-24T10:02:35.741Z,27.93
2022-08-24T10:03:38.491Z,28.65
2022-08-24T10:04:35.845Z,29.32
2022-08-24T10:05:36.931Z,27.94
2022-08-24T10:06:35.618Z,28.57
2022-08-24T10:07:35.603Z,29.83
2022-08-24T10:08:35.594Z,28.68
2022-08-24T10:09:35.654Z,29.44
2022-08-24T10:10:35.570Z,30.58
2022-08-24T10:11:35.552Z,29.86
2022-08-24T10:12:35.551Z,29.54
2022-08-24T10:13:35.530Z,26.46
2022-08-24T10:14:35.522Z,28.05
2022-08-24T10:15:35.508Z,27.68
2022-08-24T10:16:35.580Z,27.95
2022-08-24T10:17:35.493Z,29.49
2022-08-24T10:18:35.519Z,27.06
2022-08-24T10:19:35.460Z,28.54
2022-08-24T10:20:35.452Z,27.97
2022-08-24T10:21:35.439Z,28.47
2022-08-24T10:22:35.430Z,28.55
2022-08-24T10:23:35.416Z,28.33
2022-08-24T10:24:35.408Z,28.72
2022-08-24T10:25:35.394Z,26.95
2022-08-24T10:26:35.387Z,27.53
2022-08-24T10:27:35.376Z,25.96
2022-08-24T10:28:35.521Z,27.50
2022-08-24T10:29:35.354Z,28.44
2022-08-24T10:30:35.346Z,26.97
2022-08-24T10:31:35.395Z,25.99
2022-08-24T10:32:35.326Z,25.78
2022-08-24T10:33:35.312Z,27.53
2022-08-24T10:34:35.301Z,25.79
2022-08-24T10:35:35.283Z,26.39
2022-08-24T10:36:35.271Z,26.29
2022-08-24T10:37:35.264Z,26.00
2022-08-24T10:38:36.279Z,26.11
2022-08-24T10:39:35.242Z,27.01
2022-08-24T10:40:35.294Z,26.92
2022-08-24T10:41:35.217Z,26.90
2022-08-24T10:42:35.217Z,25.93
2022-08-24T10:43:35.200Z,25.75
2022-08-24T10:44:35.197Z,26.14
2022-08-24T10:45:35.269Z,26.90
2022-08-24T10:46:35.174Z,27.84
2022-08-24T10:47:35.163Z,27.24
2022-08-24T10:48:35.166Z,27.14
2022-08-24T10:49:35.191Z,26.63
2022-08-24T10:50:35.161Z,24.50
2022-08-24T10:51:35.169Z,25.27
2022-08-24T10:52:35.142Z,24.90
2022-08-24T10:53:35.147Z,24.57
2022-08-24T10:54:35.112Z,28.22
2022-08-24T10:55:35.201Z,27.82
2022-08-24T10:56:35.119Z,25.86
2022-08-24T10:57:35.098Z,25.76
2022-08-24T10:58:35.081Z,25.65
2022-08-24T10:59:35.031Z,26.26
2022-08-24T11:00:35.024Z,27.03
2022-08-24T11:01:35.162Z,27.21
2022-08-24T11:02:35.054Z,27.68
2022-08-24T11:03:34.987Z,24.46
2022-08-24T11:04:34.985Z,24.48
2022-08-24T11:05:34.971Z,25.27
2022-08-24T11:06:34.963Z,25.12
2022-08-24T11:09:24.974Z,26.79
2022-08-24T11:10:24.963Z,27.45
2022-08-24T11:11:24.951Z,26.67
2022-08-24T11:12:25.074Z,26.19
2022-08-24T11:13:24.932Z,26.37
2022-08-24T11:14:24.925Z,25.96
2022-08-24T11:15:24.911Z,27.50
2022-08-24T11:16:25.022Z,26.73
2022-08-24T11:17:24.881Z,26.53
2022-08-24T11:18:24.882Z,26.60
2022-08-24T11:19:24.861Z,25.74
2022-08-24T11:20:24.855Z,26.42
2022-08-24T11:21:24.842Z,26.89
2022-08-24T11:22:24.833Z,25.63
2022-08-24T11:23:28.312Z,26.48
2022-08-24T11:24:25.836Z,26.06
2022-08-24T11:25:24.793Z,25.38
2022-08-24T11:26:24.785Z,25.26
2022-08-24T11:27:24.773Z,26.14
2022-08-24T11:28:24.770Z,26.04
2022-08-24T11:29:24.755Z,25.26
2022-08-24T11:30:24.745Z,25.19
2022-08-24T11:31:24.785Z,25.88
2022-08-24T11:32:24.720Z,26.17
2022-08-24T11:33:24.706Z,26.23
2022-08-24T11:34:24.698Z,25.16
2022-08-24T11:35:24.681Z,25.36
2022-08-24T11:36:24.675Z,25.76
2022-08-24T11:37:27.090Z,24.71
2022-08-24T11:38:25.701Z,25.53
2022-08-24T11:39:24.642Z,25.93
2022-08-24T11:40:24.691Z,25.86
2022-08-24T11:41:24.619Z,25.85
2022-08-24T11:42:27.470Z,26.79
2022-08-24T11:43:24.595Z,25.79
2022-08-24T11:44:24.589Z,25.21
2022-08-24T11:45:24.572Z,25.82
2022-08-24T11:46:24.597Z,26.38
2022-08-24T11:47:24.543Z,25.87
2022-08-24T11:48:28.499Z,25.51
2022-08-24T11:49:24.524Z,25.41
2022-08-24T11:50:24.516Z,25.20
2022-08-24T11:51:24.504Z,24.61
2022-08-24T11:52:24.496Z,24.87
2022-08-24T11:53:24.489Z,25.35
2022-08-24T11:54:24.492Z,24.11
2022-08-24T11:55:24.586Z,25.59
2022-08-24T11:56:25.723Z,25.31
2022-08-24T11:57:24.521Z,25.64
2022-08-24T11:58:24.426Z,26.03
2022-08-24T11:59:24.433Z,26.22
2022-08-24T12:00:24.400Z,26.06
2022-08-24T12:01:24.389Z,26.25
2022-08-24T12:02:24.470Z,26.34
2022-08-24T12:03:24.476Z,27.33
2022-08-24T12:04:24.353Z,28.02
2022-08-24T12:05:24.349Z,27.23
2022-08-24T12:06:24.331Z,27.53
2022-08-24T12:07:25.343Z,27.42
2022-08-24T12:08:24.312Z,27.14
2022-08-24T12:09:24.305Z,27.44
2022-08-24T12:10:24.353Z,27.44
2022-08-24T12:11:24.284Z,27.65
2022-08-24T12:12:24.271Z,28.03
2022-08-24T12:13:24.260Z,27.64
2022-08-24T12:14:24.246Z,28.23
2022-08-24T12:15:24.241Z,28.61
2022-08-24T12:16:24.265Z,27.50
2022-08-24T12:17:24.212Z,28.44
2022-08-24T12:18:24.212Z,26.56
2022-08-24T12:19:24.190Z,25.78
2022-08-24T12:20:24.177Z,26.20
2022-08-24T12:21:24.167Z,26.90
2022-08-24T12:22:24.155Z,27.75
2022-08-24T12:23:24.142Z,26.46
2022-08-24T12:24:24.130Z,26.35
2022-08-24T12:25:24.128Z,25.67
2022-08-24T12:26:24.113Z,26.27
2022-08-24T12:27:24.104Z,26.57
2022-08-24T12:28:24.340Z,26.76
2022-08-24T12:29:24.078Z,27.43
2022-08-24T12:30:24.062Z,26.67
2022-08-24T12:31:24.143Z,26.68
2022-08-24T12:32:24.038Z,27.10
2022-08-24T12:33:24.037Z,26.92
2022-08-24T12:34:24.021Z,27.61
2022-08-24T12:35:24.014Z,27.98
2022-08-24T12:36:24.000Z,27.21
2022-08-24T12:37:23.994Z,27.12
2022-08-24T12:38:23.978Z,27.03
2022-08-24T12:39:23.976Z,27.34
2022-08-24T12:40:24.014Z,28.04
2022-08-24T12:41:23.942Z,28.03
2022-08-24T12:42:23.927Z,25.97
2022-08-24T12:43:23.922Z,26.75
2022-08-24T12:44:25.500Z,25.98
2022-08-24T12:45:23.896Z,26.18
2022-08-24T12:46:23.970Z,26.47
2022-08-24T12:47:23.875Z,26.46
2022-08-24T12:48:23.860Z,26.36
2022-08-24T12:49:23.861Z,25.54
2022-08-24T12:50:25.344Z,26.11
2022-08-24T12:51:23.837Z,26.39
2022-08-24T12:52:23.823Z,26.51
2022-08-24T12:53:23.816Z,30.12
2022-08-24T12:54:23.803Z,29.25
2022-08-24T12:55:23.794Z,28.69